createdAt,value
2018-03-20T00:00:41.314Z,96026.28
2018-03-20T00:02:20.221Z,95989.32
2018-03-20T00:03:58.907Z,96009.11
2018-03-20T00:05:37.541Z,96041.39
2018-03-20T00:07:16.222Z,96066.36
2018-03-20T00:08:54.999Z,96093.81
2018-03-20T00:10:33.677Z,96117.12
2018-03-20T00:12:12.543Z,96182.22
2018-03-20T00:13:51.658Z,96174.84
2018-03-20T00:15:31.133Z,96148.55
2018-03-20T00:17:10.772Z,96152.37
2018-03-20T00:18:49.779Z,96140.29
2018-03-20T00:20:29.278Z,96152.37
2018-03-20T00:22:07.941Z,96129.55
2018-03-20T00:23:46.197Z,96147.70
2018-03-20T00:25:25.596Z,96205.81
2018-03-20T00:27:04.491Z,96217.98
2018-03-20T00:28:43.938Z,96239.85
2018-03-20T00:30:23.173Z,96249.84
2018-03-20T00:32:01.602Z,96250.31
2018-03-20T00:33:40.640Z,96261.52
2018-03-20T00:35:19.713Z,96271.80
2018-03-20T00:36:59.120Z,96317.09
2018-03-20T00:38:38.154Z,96303.68
2018-03-20T00:40:17.793Z,96249.81
2018-03-20T00:41:56.842Z,96241.16
2018-03-20T00:43:36.283Z,96236.52
2018-03-20T00:45:16.724Z,96229.14
2018-03-20T00:46:55.363Z,96216.59
2018-03-20T00:48:34.581Z,96260.56
2018-03-20T00:50:14.174Z,96318.75
2018-03-20T00:51:52.500Z,96342.45
2018-03-20T00:53:30.896Z,96361.50
2018-03-20T00:55:10.437Z,96342.52
2018-03-20T00:56:48.977Z,96362.25
2018-03-20T00:58:27.579Z,96326.06
2018-03-20T01:00:08.921Z,96288.08
2018-03-20T01:01:50.334Z,96203.69
2018-03-20T01:03:30.131Z,96201.56
2018-03-20T01:05:09.150Z,96258.78
2018-03-20T01:06:47.914Z,96338.20
2018-03-20T01:08:26.946Z,96345.44
2018-03-20T01:10:05.859Z,96327.30
2018-03-20T01:11:44.924Z,96286.30
2018-03-20T01:13:23.988Z,96189.27
2018-03-20T01:15:04.231Z,96084.28
2018-03-20T01:16:44.067Z,95959.98
2018-03-20T01:18:23.215Z,95809.31
2018-03-20T01:20:02.066Z,95719.95
2018-03-20T01:21:40.993Z,95677.88
2018-03-20T01:23:19.610Z,95676.14
2018-03-20T01:24:57.885Z,95679.11
2018-03-20T01:26:36.421Z,95719.95
2018-03-20T01:28:15.265Z,95759.54
2018-03-20T01:29:54.008Z,95780.11
2018-03-20T01:31:33.910Z,95798.67
2018-03-20T01:33:13.148Z,95699.28
2018-03-20T01:34:52.261Z,95658.47
2018-03-20T01:36:32.036Z,95598.75
2018-03-20T01:38:12.077Z,95538.62
2018-03-20T01:39:50.490Z,95534.82
2018-03-20T01:41:29.761Z,95539.17
2018-03-20T01:43:08.040Z,95533.52
2018-03-20T01:44:46.433Z,95537.40
2018-03-20T01:46:26.066Z,95538.25
2018-03-20T01:48:06.266Z,95546.90
2018-03-20T01:49:49.337Z,95597.45
2018-03-20T01:51:29.195Z,95667.52
2018-03-20T01:53:20.328Z,95720.34
2018-03-20T01:55:00.594Z,95749.14
2018-03-20T01:56:39.673Z,95741.83
2018-03-20T01:58:18.319Z,95681.11
2018-03-20T01:59:57.896Z,95637.00
2018-03-20T02:01:37.697Z,95615.52
2018-03-20T02:03:16.418Z,95615.48
2018-03-20T02:04:55.068Z,95607.30
2018-03-20T02:06:34.907Z,95639.93
2018-03-20T02:08:14.287Z,95671.25
2018-03-20T02:09:53.602Z,95693.20
2018-03-20T02:11:32.225Z,95721.99
2018-03-20T02:13:11.481Z,95705.63
2018-03-20T02:14:51.512Z,95748.57
2018-03-20T02:16:30.616Z,95815.67
2018-03-20T02:18:09.154Z,95878.02
2018-03-20T02:19:48.282Z,95909.48
2018-03-20T02:21:27.518Z,95894.83
2018-03-20T02:23:05.870Z,95874.66
2018-03-20T02:24:45.382Z,95864.76
2018-03-20T02:26:24.596Z,95822.53
2018-03-20T02:28:03.138Z,95795.94
2018-03-20T02:29:42.226Z,95886.73
2018-03-20T02:31:20.725Z,95981.34
2018-03-20T02:32:59.737Z,96043.73
2018-03-20T02:34:38.134Z,96103.94
2018-03-20T02:36:18.252Z,96116.44
2018-03-20T02:37:56.811Z,96105.59
2018-03-20T02:39:36.182Z,95943.30
2018-03-20T02:41:14.823Z,95856.94
2018-03-20T02:42:55.096Z,95804.03
2018-03-20T02:44:34.589Z,95801.87
2018-03-20T02:46:14.941Z,95823.80
2018-03-20T02:47:54.013Z,95776.99
2018-03-20T02:49:33.774Z,95659.32
2018-03-20T02:51:11.718Z,95644.20
2018-03-20T02:52:51.005Z,95686.69
2018-03-20T02:54:29.709Z,95632.96
2018-03-20T02:56:08.726Z,95578.48
2018-03-20T02:57:46.613Z,95556.59
2018-03-20T02:59:24.753Z,95599.09
2018-03-20T03:01:03.552Z,95629.11
2018-03-20T03:02:42.475Z,95678.92
2018-03-20T03:04:20.841Z,95683.23
2018-03-20T03:05:59.418Z,95677.95
2018-03-20T03:07:38.535Z,95668.06
2018-03-20T03:09:17.303Z,95728.31
2018-03-20T03:10:56.173Z,95708.14
2018-03-20T03:12:33.895Z,95675.03
2018-03-20T03:14:12.262Z,95751.53
2018-03-20T03:15:50.258Z,95850.92
2018-03-20T03:17:29.131Z,95857.25
2018-03-20T03:19:08.445Z,95874.02
2018-03-20T03:20:45.971Z,95826.73
2018-03-20T03:22:26.671Z,95743.30
2018-03-20T03:24:06.497Z,95704.71
2018-03-20T03:25:45.082Z,95707.22
2018-03-20T03:27:23.458Z,95638.92
2018-03-20T03:29:01.042Z,95577.98
2018-03-20T03:30:39.773Z,95610.64
2018-03-20T03:32:18.479Z,95674.19
2018-03-20T03:33:56.916Z,95724.89
2018-03-20T03:35:33.905Z,95749.80
2018-03-20T03:37:13.007Z,95748.95
2018-03-20T03:38:50.297Z,95754.50
2018-03-20T03:40:27.966Z,95777.27
2018-03-20T03:42:06.140Z,95809.89
2018-03-20T03:43:43.603Z,95791.83
2018-03-20T03:45:22.466Z,95738.98
2018-03-20T03:47:00.065Z,95661.67
2018-03-20T03:48:38.567Z,95623.88
2018-03-20T03:50:16.479Z,95578.36
2018-03-20T03:51:54.942Z,95516.52
2018-03-20T03:53:32.915Z,95399.92
2018-03-20T03:55:11.001Z,95318.79
2018-03-20T03:56:49.783Z,95253.73
2018-03-20T03:58:27.199Z,95213.02
2018-03-20T04:00:06.827Z,95231.94
2018-03-20T04:01:45.368Z,95313.75
2018-03-20T04:03:23.930Z,95356.97
2018-03-20T04:05:03.134Z,95338.14
2018-03-20T04:06:40.761Z,95345.41
2018-03-20T04:08:19.903Z,95344.14
2018-03-20T04:09:57.986Z,95348.06
2018-03-20T04:11:37.216Z,95313.72
2018-03-20T04:13:15.875Z,95293.59
2018-03-20T04:14:53.874Z,95298.24
2018-03-20T04:16:32.674Z,95355.73
2018-03-20T04:18:12.216Z,95375.79
2018-03-20T04:19:50.531Z,95422.13
2018-03-20T04:21:29.833Z,95465.07
2018-03-20T04:23:09.074Z,95514.02
2018-03-20T04:24:48.492Z,95547.81
2018-03-20T04:26:26.375Z,95601.48
2018-03-20T04:28:05.512Z,95667.18
2018-03-20T04:29:45.424Z,95738.98
2018-03-20T04:31:25.229Z,95777.30
2018-03-20T04:33:03.379Z,95789.67
2018-03-20T04:34:41.883Z,95891.91
2018-03-20T04:36:20.826Z,95909.56
2018-03-20T04:37:58.981Z,95978.12
2018-03-20T04:39:37.391Z,96020.59
2018-03-20T04:41:15.848Z,96050.38
2018-03-20T04:42:54.062Z,96033.91
2018-03-20T04:44:31.710Z,96036.99
2018-03-20T04:47:55.759Z,95950.89
2018-03-20T04:49:34.412Z,95879.00
2018-03-20T04:51:13.899Z,95856.29
2018-03-20T04:52:53.323Z,95790.94
2018-03-20T04:54:30.562Z,95683.50
2018-03-20T04:56:07.814Z,95627.19
2018-03-20T04:57:45.820Z,95603.14
2018-03-20T04:59:23.836Z,95504.44
2018-03-20T05:01:01.522Z,95366.42
2018-03-20T05:02:38.185Z,95471.03
2018-03-20T05:04:15.649Z,95609.64
2018-03-20T05:05:54.900Z,95653.02
2018-03-20T05:07:33.002Z,95524.67
2018-03-20T05:09:11.439Z,95543.55
2018-03-20T05:10:49.458Z,95607.95
2018-03-20T05:12:27.659Z,95771.68
2018-03-20T05:14:06.485Z,95890.67
2018-03-20T05:15:45.724Z,95925.13
2018-03-20T05:17:24.831Z,95970.33
2018-03-20T05:19:05.504Z,95938.91
2018-03-20T05:20:44.615Z,95819.30
2018-03-20T05:22:23.621Z,95802.50
2018-03-20T05:24:02.478Z,95808.55
2018-03-20T05:25:40.763Z,95685.92
2018-03-20T05:27:19.227Z,95566.63
2018-03-20T05:28:58.376Z,95595.02
2018-03-20T05:30:37.560Z,95626.38
2018-03-20T05:32:16.778Z,95592.83
2018-03-20T05:33:55.762Z,95544.31
2018-03-20T05:35:35.700Z,95616.11
2018-03-20T05:37:15.787Z,95650.44
2018-03-20T05:38:54.972Z,95713.11
2018-03-20T05:40:33.029Z,95748.37
2018-03-20T05:42:12.364Z,95712.64
2018-03-20T05:43:51.076Z,95695.47
2018-03-20T05:45:31.142Z,95735.55
2018-03-20T05:47:10.271Z,95726.00
2018-03-20T05:48:49.651Z,95658.59
2018-03-20T05:50:29.084Z,95753.93
2018-03-20T05:52:08.087Z,95705.44
2018-03-20T05:53:47.009Z,95785.70
2018-03-20T05:55:26.486Z,95825.27
2018-03-20T05:57:05.098Z,95838.56
2018-03-20T05:58:45.347Z,95898.31
2018-03-20T06:00:26.170Z,95912.07
2018-03-20T06:02:05.857Z,95888.48
2018-03-20T06:03:44.847Z,95823.54
2018-03-20T06:05:23.624Z,95805.05
2018-03-20T06:07:01.823Z,95822.73
2018-03-20T06:08:40.147Z,95861.87
2018-03-20T06:10:21.015Z,95836.41
2018-03-20T06:11:59.550Z,95820.92
2018-03-20T06:13:44.860Z,95786.44
2018-03-20T06:15:25.617Z,95763.86
2018-03-20T06:17:04.969Z,95770.75
2018-03-20T06:18:43.938Z,95766.41
2018-03-20T06:20:22.260Z,95831.78
2018-03-20T06:22:00.915Z,95889.33
2018-03-20T06:23:38.451Z,95935.36
2018-03-20T06:25:16.313Z,95935.36
2018-03-20T06:26:54.715Z,95913.50
2018-03-20T06:28:32.957Z,95932.39
2018-03-20T06:30:11.924Z,95914.73
2018-03-20T06:31:50.328Z,95926.26
2018-03-20T06:33:29.242Z,95951.28
2018-03-20T06:35:08.999Z,95940.56
2018-03-20T06:36:48.430Z,95868.70
2018-03-20T06:38:28.055Z,95803.42
2018-03-20T06:40:06.363Z,95746.64
2018-03-20T06:41:46.724Z,95677.84
2018-03-20T06:43:25.515Z,95693.66
2018-03-20T06:45:04.974Z,95745.34
2018-03-20T06:46:45.229Z,95792.14
2018-03-20T06:48:24.409Z,95830.44
2018-03-20T06:50:03.774Z,95833.02
2018-03-20T06:51:41.740Z,95815.30
2018-03-20T06:53:21.010Z,95829.16
2018-03-20T06:54:59.808Z,95844.19
2018-03-20T06:56:38.310Z,95857.49
2018-03-20T06:58:18.134Z,95895.84
2018-03-20T06:59:57.779Z,95946.66
2018-03-20T07:01:37.241Z,95964.27
2018-03-20T07:03:15.582Z,95950.05
2018-03-20T07:04:54.102Z,95971.14
2018-03-20T07:06:33.462Z,95977.55
2018-03-20T07:08:12.808Z,95950.05
2018-03-20T07:09:51.885Z,95925.45
2018-03-20T07:11:30.808Z,95853.20
2018-03-20T07:13:09.186Z,95845.54
2018-03-20T07:14:49.955Z,95798.15
2018-03-20T07:16:28.401Z,95836.88
2018-03-20T07:18:06.851Z,95923.40
2018-03-20T07:19:46.284Z,95991.78
2018-03-20T07:21:24.942Z,96076.19
2018-03-20T07:23:03.125Z,96111.47
2018-03-20T07:24:41.912Z,96128.73
2018-03-20T07:26:20.780Z,96217.48
2018-03-20T07:27:58.740Z,96298.50
2018-03-20T07:29:37.283Z,96302.76
2018-03-20T07:31:15.739Z,96276.37
2018-03-20T07:32:55.166Z,96304.06
2018-03-20T07:34:34.874Z,96245.45
2018-03-20T07:36:13.466Z,96182.13
2018-03-20T07:37:51.307Z,96291.62
2018-03-20T07:39:29.899Z,96389.55
2018-03-20T07:41:09.121Z,96329.58
2018-03-20T07:42:47.859Z,96375.77
2018-03-20T07:44:26.581Z,96492.70
2018-03-20T07:46:05.588Z,96558.42
2018-03-20T07:47:44.662Z,96571.35
2018-03-20T07:51:01.390Z,96720.02
2018-03-20T07:52:40.390Z,96677.63
2018-03-20T07:54:18.545Z,96699.21
2018-03-20T07:55:57.353Z,96697.47
2018-03-20T07:57:35.645Z,96711.77
2018-03-20T07:59:14.911Z,96627.86
2018-03-20T08:00:55.242Z,96508.27
2018-03-20T08:02:35.185Z,96444.34
2018-03-20T08:04:13.930Z,96370.55
2018-03-20T08:05:52.601Z,96320.92
2018-03-20T08:07:32.084Z,96296.80
2018-03-20T08:09:10.408Z,96236.05
2018-03-20T08:10:49.482Z,96212.72
2018-03-20T08:12:28.087Z,96222.69
2018-03-20T08:14:06.191Z,96280.45
2018-03-20T08:15:45.966Z,96304.53
2018-03-20T08:17:24.083Z,96334.26
2018-03-20T08:19:04.285Z,96373.61
2018-03-20T08:20:43.100Z,96361.90
2018-03-20T08:22:22.678Z,96373.14
2018-03-20T08:24:01.728Z,96352.53
2018-03-20T08:25:40.382Z,96325.70
2018-03-20T08:27:19.833Z,96374.92
2018-03-20T08:28:57.254Z,96436.64
2018-03-20T08:30:36.080Z,96482.34
2018-03-20T08:32:15.513Z,96525.59
2018-03-20T08:33:53.560Z,96518.56
2018-03-20T08:35:31.556Z,96522.51
2018-03-20T08:37:09.578Z,96551.49
2018-03-20T08:38:49.189Z,96594.77
2018-03-20T08:40:26.672Z,96636.59
2018-03-20T08:42:05.566Z,96673.36
2018-03-20T08:43:44.800Z,96715.34
2018-03-20T08:45:25.477Z,96778.06
2018-03-20T08:47:05.303Z,96780.59
2018-03-20T08:48:44.654Z,96766.28
2018-03-20T08:50:23.565Z,96794.42
2018-03-20T08:52:02.938Z,96804.92
2018-03-20T08:53:42.478Z,96803.96
2018-03-20T08:55:20.699Z,96758.07
2018-03-20T08:56:59.379Z,96750.34
2018-03-20T08:58:38.007Z,96702.77
2018-03-20T09:00:18.350Z,96522.12
2018-03-20T09:01:57.561Z,96494.16
2018-03-20T09:03:36.439Z,96515.72
2018-03-20T09:05:17.209Z,96587.09
2018-03-20T09:06:56.738Z,96609.52
2018-03-20T09:08:35.515Z,96638.91
2018-03-20T09:10:14.781Z,96625.47
2018-03-20T09:11:53.650Z,96628.52
2018-03-20T09:13:32.370Z,96589.64
2018-03-20T09:15:09.964Z,96584.45
2018-03-20T09:16:48.936Z,96593.09
2018-03-20T09:18:27.997Z,96584.49
2018-03-20T09:20:07.993Z,96584.03
2018-03-20T09:21:48.084Z,96658.78
2018-03-20T09:23:27.270Z,96736.16
2018-03-20T09:25:06.135Z,96779.87
2018-03-20T09:26:45.086Z,96852.99
2018-03-20T09:28:24.425Z,96890.66
2018-03-20T09:30:03.759Z,96924.44
2018-03-20T09:31:42.714Z,96920.92
2018-03-20T09:33:22.361Z,96872.11
2018-03-20T09:35:00.899Z,96896.31
2018-03-20T09:36:39.572Z,96827.05
2018-03-20T09:38:18.196Z,96855.69
2018-03-20T09:39:57.589Z,96880.36
2018-03-20T09:41:36.635Z,96930.10
2018-03-20T09:43:14.773Z,97005.53
2018-03-20T09:44:53.079Z,97067.04
2018-03-20T09:46:31.158Z,96974.30
2018-03-20T09:48:10.082Z,96947.51
2018-03-20T09:49:48.126Z,96998.20
2018-03-20T09:51:26.198Z,97011.20
2018-03-20T09:53:04.905Z,97057.52
2018-03-20T09:54:42.180Z,97061.11
2018-03-20T09:56:19.990Z,96997.80
2018-03-20T09:57:58.933Z,97027.27
2018-03-20T09:59:37.841Z,97096.58
2018-03-20T10:01:17.260Z,97091.47
2018-03-20T10:02:55.249Z,97058.84
2018-03-20T10:04:33.785Z,97015.61
2018-03-20T10:06:11.510Z,97015.58
2018-03-20T10:07:50.799Z,97057.63
2018-03-20T10:09:29.054Z,97060.19
2018-03-20T10:11:07.933Z,97094.44
2018-03-20T10:12:47.242Z,97094.41
2018-03-20T10:14:26.702Z,97197.23
2018-03-20T10:16:06.675Z,97282.23
2018-03-20T10:17:44.501Z,97291.36
2018-03-20T10:19:23.205Z,97267.91
2018-03-20T10:21:02.308Z,97263.50
2018-03-20T10:22:40.838Z,97246.65
2018-03-20T10:24:18.857Z,97249.72
2018-03-20T10:25:57.014Z,97135.16
2018-03-20T10:27:36.028Z,97116.58
2018-03-20T10:29:14.418Z,97158.71
2018-03-20T10:30:52.829Z,97115.84
2018-03-20T10:32:31.327Z,97178.22
2018-03-20T10:34:10.262Z,97265.77
2018-03-20T10:35:49.607Z,97287.53
2018-03-20T10:37:27.395Z,97227.59
2018-03-20T10:39:06.776Z,97166.06
2018-03-20T10:40:45.762Z,97150.08
2018-03-20T10:42:23.818Z,97149.19
2018-03-20T10:44:01.532Z,97223.38
2018-03-20T10:45:41.120Z,97317.02
2018-03-20T10:47:20.056Z,97406.45
2018-03-20T10:48:59.082Z,97426.06
2018-03-20T10:50:37.040Z,97485.58
2018-03-20T10:52:15.320Z,97457.75
2018-03-20T10:53:53.979Z,97439.95
2018-03-20T10:55:31.840Z,97484.23
2018-03-20T10:57:09.526Z,97550.37
2018-03-20T10:58:48.491Z,97563.05
2018-03-20T11:00:33.761Z,97630.39
2018-03-20T11:02:15.919Z,97645.59
2018-03-20T11:03:54.021Z,97670.34
2018-03-20T11:05:32.818Z,97645.16
2018-03-20T11:07:11.414Z,97616.47
2018-03-20T11:08:49.293Z,97620.83
2018-03-20T11:10:27.901Z,97534.66
2018-03-20T11:12:06.811Z,97536.92
2018-03-20T11:13:45.056Z,97591.75
2018-03-20T11:15:25.345Z,97650.01
2018-03-20T11:17:03.836Z,97718.68
2018-03-20T11:18:43.281Z,97848.50
2018-03-20T11:20:20.572Z,97838.11
2018-03-20T11:21:58.922Z,97717.02
2018-03-20T11:23:37.500Z,97771.81
2018-03-20T11:25:16.456Z,97831.16
2018-03-20T11:26:55.208Z,97864.59
2018-03-20T11:28:33.742Z,97899.93
2018-03-20T11:30:13.242Z,97866.00
2018-03-20T11:31:54.252Z,97857.23
2018-03-20T11:33:32.766Z,97789.77
2018-03-20T11:35:11.481Z,97755.40
2018-03-20T11:36:49.946Z,97734.07
2018-03-20T11:38:29.288Z,97707.49
2018-03-20T11:40:07.566Z,97804.19
2018-03-20T11:41:47.158Z,97701.86
2018-03-20T11:43:25.671Z,97731.00
2018-03-20T11:45:04.639Z,97771.53
2018-03-20T11:46:43.503Z,97842.53
2018-03-20T11:48:21.460Z,97846.38
2018-03-20T11:50:00.201Z,97889.98
2018-03-20T11:51:38.010Z,97887.38
2018-03-20T11:53:15.995Z,97878.23
2018-03-20T11:54:54.482Z,97815.07
2018-03-20T11:56:33.000Z,97831.64
2018-03-20T11:58:12.146Z,97837.77
2018-03-20T11:59:50.161Z,97840.34
2018-03-20T12:01:29.321Z,97868.24
2018-03-20T12:03:07.436Z,97960.17
2018-03-20T12:04:45.831Z,97977.16
2018-03-20T12:06:24.898Z,98024.25
2018-03-20T12:08:11.896Z,98021.64
2018-03-20T12:09:52.935Z,98051.31
2018-03-20T12:11:31.349Z,98100.55
2018-03-20T12:13:09.460Z,98070.93
2018-03-20T12:14:47.417Z,98043.46
2018-03-20T12:16:25.078Z,97928.37
2018-03-20T12:18:03.551Z,98019.05
2018-03-20T12:19:42.174Z,98018.61
2018-03-20T12:21:20.942Z,98008.95
2018-03-20T12:22:59.745Z,97983.73
2018-03-20T12:24:37.847Z,98023.82
2018-03-20T12:26:17.061Z,98041.22
2018-03-20T12:27:55.121Z,98056.09
2018-03-20T12:29:33.865Z,98079.59
2018-03-20T12:31:13.135Z,98132.49
2018-03-20T12:32:50.968Z,98063.11
2018-03-20T12:34:29.931Z,98042.59
2018-03-20T12:36:08.594Z,98103.27
2018-03-20T12:37:47.563Z,98159.14
2018-03-20T12:39:26.039Z,98224.55
2018-03-20T12:41:04.395Z,98255.09
2018-03-20T12:42:42.213Z,98213.23
2018-03-20T12:44:20.192Z,98187.92
2018-03-20T12:45:59.144Z,98111.52
2018-03-20T12:47:37.538Z,98066.16
2018-03-20T12:49:15.874Z,98122.45
2018-03-20T12:50:54.308Z,98143.80
2018-03-20T12:52:33.356Z,98150.42
2018-03-20T12:54:11.277Z,98133.30
2018-03-20T12:55:50.869Z,98157.33
2018-03-20T12:57:28.616Z,98105.91
2018-03-20T12:59:06.652Z,98124.67
2018-03-20T13:00:45.556Z,98208.02
2018-03-20T13:02:23.253Z,98140.33
2018-03-20T13:04:01.648Z,98105.94
2018-03-20T13:05:38.750Z,98076.22
2018-03-20T13:07:17.536Z,98055.72
2018-03-20T13:08:55.407Z,98083.18
2018-03-20T13:10:34.396Z,98090.63
2018-03-20T13:12:12.563Z,98131.17
2018-03-20T13:13:51.452Z,98032.63
2018-03-20T13:15:34.285Z,98115.48
2018-03-20T13:17:12.427Z,98202.80
2018-03-20T13:18:50.769Z,98200.50
2018-03-20T13:20:28.912Z,98218.06
2018-03-20T13:22:07.559Z,98206.26
2018-03-20T13:23:47.445Z,98209.34
2018-03-20T13:25:25.063Z,98308.46
2018-03-20T13:27:03.647Z,98238.16
2018-03-20T13:28:41.477Z,98334.70
2018-03-20T13:30:21.486Z,98386.22
2018-03-20T13:33:41.479Z,98356.97
2018-03-20T13:37:03.652Z,98283.55
2018-03-20T13:38:43.382Z,98330.27
2018-03-20T13:40:21.633Z,98271.30
2018-03-20T13:41:59.991Z,98281.79
2018-03-20T13:43:38.317Z,98291.38
2018-03-20T13:45:18.280Z,98290.05
2018-03-20T13:46:56.741Z,98298.41
2018-03-20T13:48:35.296Z,98261.31
2018-03-20T13:50:13.770Z,98205.42
2018-03-20T13:51:52.792Z,98129.88
2018-03-20T13:53:31.571Z,98121.62
2018-03-20T13:55:09.964Z,98146.53
2018-03-20T13:56:47.544Z,98156.52
2018-03-20T13:58:25.951Z,98211.55
2018-03-20T14:00:06.097Z,98204.53
2018-03-20T14:01:45.240Z,98266.47
2018-03-20T14:03:23.642Z,98307.63
2018-03-20T14:05:02.005Z,98339.40
2018-03-20T14:06:40.645Z,98294.86
2018-03-20T14:08:18.356Z,98202.75
2018-03-20T14:09:56.672Z,98227.70
2018-03-20T14:11:35.729Z,98290.95
2018-03-20T14:13:13.536Z,98268.20
2018-03-20T14:14:51.833Z,98219.77
2018-03-20T14:16:29.589Z,98180.50
2018-03-20T14:18:09.302Z,98221.09
2018-03-20T14:19:48.611Z,98285.77
2018-03-20T14:21:27.101Z,98297.48
2018-03-20T14:23:05.909Z,98276.11
2018-03-20T14:24:45.082Z,98292.22
2018-03-20T14:26:24.438Z,98321.11
2018-03-20T14:28:03.203Z,98356.11
2018-03-20T14:29:44.462Z,98379.63
2018-03-20T14:31:24.045Z,98386.22
2018-03-20T14:33:03.682Z,98422.97
2018-03-20T14:34:46.380Z,98376.19
2018-03-20T14:36:25.174Z,98404.50
2018-03-20T14:38:06.127Z,98375.73
2018-03-20T14:39:46.850Z,98329.84
2018-03-20T14:41:25.272Z,98234.22
2018-03-20T14:43:05.491Z,98194.48
2018-03-20T14:44:45.156Z,98202.77
2018-03-20T14:46:23.951Z,98177.42
2018-03-20T14:49:48.043Z,98274.36
2018-03-20T14:51:27.976Z,98286.11
2018-03-20T14:53:06.752Z,98324.13
2018-03-20T14:54:48.017Z,98323.27
2018-03-20T14:56:26.873Z,98300.54
2018-03-20T14:58:05.474Z,98234.59
2018-03-20T14:59:43.863Z,98236.38
2018-03-20T15:01:23.097Z,98174.42
2018-03-20T15:03:01.363Z,98185.73
2018-03-20T15:04:39.526Z,98294.00
2018-03-20T15:06:18.448Z,98396.72
2018-03-20T15:07:57.700Z,98416.78
2018-03-20T15:09:36.961Z,98437.30
2018-03-20T15:11:15.935Z,98420.27
2018-03-20T15:12:55.769Z,98380.05
2018-03-20T15:14:33.702Z,98384.87
2018-03-20T15:16:13.327Z,98394.47
2018-03-20T15:17:51.975Z,98381.35
2018-03-20T15:19:30.884Z,98408.42
2018-03-20T15:21:09.540Z,98420.27
2018-03-20T15:22:50.361Z,98442.06
2018-03-20T15:24:31.033Z,98455.69
2018-03-20T15:26:10.404Z,98496.30
2018-03-20T15:27:49.579Z,98480.91
2018-03-20T15:29:28.793Z,98474.46
2018-03-20T15:31:08.587Z,98380.44
2018-03-20T15:32:46.887Z,98361.67
2018-03-20T15:34:25.133Z,98452.58
2018-03-20T15:36:05.440Z,98537.00
2018-03-20T15:37:44.254Z,98569.75
2018-03-20T15:39:23.598Z,98503.73
2018-03-20T15:41:02.076Z,98556.67
2018-03-20T15:42:42.771Z,98568.04
2018-03-20T15:44:21.581Z,98526.41
2018-03-20T15:46:00.147Z,98424.13
2018-03-20T15:47:38.101Z,98438.08
2018-03-20T15:49:16.268Z,98446.01
2018-03-20T15:50:56.372Z,98505.47
2018-03-20T15:52:36.208Z,98510.66
2018-03-20T15:54:14.511Z,98467.38
2018-03-20T15:55:54.036Z,98419.29
2018-03-20T15:57:32.565Z,98292.59
2018-03-20T15:59:11.415Z,98275.57
2018-03-20T16:00:51.658Z,98280.33
2018-03-20T16:02:31.285Z,98314.02
2018-03-20T16:04:11.529Z,98328.38
2018-03-20T16:05:49.691Z,98365.91
2018-03-20T16:07:28.449Z,98358.11
2018-03-20T16:09:10.108Z,98337.16
2018-03-20T16:10:49.369Z,98301.70
2018-03-20T16:12:29.519Z,98269.41
2018-03-20T16:14:09.642Z,98202.64
2018-03-20T16:15:49.487Z,98177.82
2018-03-20T16:17:30.069Z,98198.72
2018-03-20T16:19:10.405Z,98172.95
2018-03-20T16:20:57.365Z,98149.36
2018-03-20T16:22:39.411Z,98083.47
2018-03-20T16:24:18.168Z,98056.86
2018-03-20T16:25:57.162Z,98162.08
2018-03-20T16:27:40.620Z,98207.41
2018-03-20T16:29:18.224Z,98234.42
2018-03-20T16:30:58.422Z,98246.69
2018-03-20T16:32:38.508Z,98224.80
2018-03-20T16:34:15.967Z,98222.67
2018-03-20T16:35:53.762Z,98224.38
2018-03-20T16:37:32.828Z,98223.56
2018-03-20T16:39:14.198Z,98197.40
2018-03-20T16:40:54.854Z,98114.39
2018-03-20T16:42:34.314Z,98102.23
2018-03-20T16:44:13.843Z,98138.83
2018-03-20T16:45:53.363Z,98142.77
2018-03-20T16:47:34.297Z,98162.34
2018-03-20T16:49:14.300Z,98127.92
2018-03-20T16:50:54.113Z,98102.63
2018-03-20T16:52:32.368Z,98107.44
2018-03-20T16:55:57.720Z,98110.89
2018-03-20T16:57:37.291Z,98087.73
2018-03-20T16:59:18.820Z,98138.77
2018-03-20T17:00:58.772Z,98150.95
2018-03-20T17:02:39.759Z,98147.52
2018-03-20T17:04:18.586Z,98097.77
2018-03-20T17:06:00.485Z,98052.46
2018-03-20T17:07:43.737Z,98060.69
2018-03-20T17:09:23.678Z,98103.01
2018-03-20T17:11:04.512Z,98011.91
2018-03-20T17:12:44.848Z,98066.84
2018-03-20T17:14:26.049Z,98113.02
2018-03-20T17:16:07.461Z,98153.99
2018-03-20T17:17:46.435Z,98120.02
2018-03-20T17:19:26.628Z,98126.17
2018-03-20T17:21:07.134Z,98164.91
2018-03-20T17:22:48.284Z,98134.39
2018-03-20T17:24:29.606Z,98153.56
2018-03-20T17:26:09.435Z,98188.94
2018-03-20T17:27:51.184Z,98168.77
2018-03-20T17:29:37.581Z,98149.59
2018-03-20T17:31:30.097Z,98097.28
2018-03-20T17:33:42.138Z,98114.31
2018-03-20T17:35:24.642Z,98090.29
2018-03-20T17:37:10.667Z,98057.13
2018-03-20T17:38:50.247Z,98077.29
2018-03-20T17:40:34.056Z,98064.11
2018-03-20T17:42:16.788Z,98056.72
2018-03-20T17:43:58.343Z,98030.95
2018-03-20T17:45:42.891Z,98017.89
2018-03-20T17:47:30.331Z,97999.13
2018-03-20T17:49:17.851Z,98009.13
2018-03-20T17:51:00.018Z,97947.26
2018-03-20T17:52:45.414Z,97945.94
2018-03-20T17:54:28.159Z,97939.38
2018-03-20T17:56:16.291Z,97850.16
2018-03-20T17:58:00.770Z,97858.81
2018-03-20T17:59:43.771Z,97851.86
2018-03-20T18:04:18.723Z,97759.92
2018-03-20T18:05:59.938Z,97741.20
2018-03-20T18:07:39.698Z,97701.16
2018-03-20T18:09:20.728Z,97692.90
2018-03-20T18:10:59.241Z,97679.84
2018-03-20T18:12:42.741Z,97694.22
2018-03-20T18:14:25.057Z,97722.03
2018-03-20T18:16:05.171Z,97749.88
2018-03-20T18:17:46.446Z,97768.56
2018-03-20T18:19:29.975Z,97784.27
2018-03-20T18:21:10.631Z,97772.93
2018-03-20T18:22:55.142Z,97785.16
2018-03-20T18:24:36.998Z,97742.01
2018-03-20T18:26:19.413Z,97697.17
2018-03-20T18:28:00.663Z,97695.42
2018-03-20T18:29:44.286Z,97683.28
2018-03-20T18:31:27.790Z,97652.81
2018-03-20T18:33:11.793Z,97618.50
2018-03-20T18:34:55.055Z,97617.18
2018-03-20T18:36:36.183Z,97580.17
2018-03-20T18:38:19.077Z,97619.36
2018-03-20T18:40:03.408Z,97566.73
2018-03-20T18:41:47.039Z,97580.20
2018-03-20T18:43:36.180Z,97652.84
2018-03-20T18:45:20.803Z,97699.78
2018-03-20T18:47:01.695Z,97653.21
2018-03-20T18:48:44.296Z,97662.30
2018-03-20T18:50:26.495Z,97623.63
2018-03-20T18:52:11.538Z,97621.05
2018-03-20T18:53:53.883Z,97571.06
2018-03-20T18:55:39.421Z,97554.05
2018-03-20T18:57:22.406Z,97573.64
2018-03-20T18:59:06.334Z,97540.14
2018-03-20T19:00:48.584Z,97532.26
2018-03-20T19:02:33.190Z,97514.45
2018-03-20T19:04:16.297Z,97498.47
2018-03-20T19:06:00.066Z,97546.19
2018-03-20T19:07:43.422Z,97515.80
2018-03-20T19:09:27.135Z,97486.25
2018-03-20T19:11:14.895Z,97463.70
2018-03-20T19:12:57.338Z,97476.25
2018-03-20T19:14:38.565Z,97500.95
2018-03-20T19:16:18.761Z,97506.20
2018-03-20T19:18:00.434Z,97501.31
2018-03-20T19:19:43.076Z,97452.34
2018-03-20T19:21:28.953Z,97407.16
2018-03-20T19:23:10.192Z,97328.14
2018-03-20T19:24:52.706Z,97302.05
2018-03-20T19:26:34.014Z,97276.43
2018-03-20T19:28:17.662Z,97251.30
2018-03-20T19:30:03.694Z,97207.49
2018-03-20T19:31:47.566Z,97185.38
2018-03-20T19:33:27.829Z,97184.52
2018-03-20T19:35:08.955Z,97187.48
2018-03-20T19:36:50.886Z,97152.36
2018-03-20T19:38:30.877Z,97135.48
2018-03-20T19:40:13.437Z,97102.61
2018-03-20T19:41:56.008Z,97151.90